PWSweather.com
Personal Weather Stations
Station Observations
SHAHALMS1
Eftra, Falkenberg, HA

EftraFalkenberg, HA

Lat: 56.85, Lon: 12.65

Elevation: 140

Station Type:

http://hem.passagen.se/risarp101

High Low Average
Temperature 45.0°F7.2°C 39.0°F3.9°C 40.8°F4.9°C
Dew Point 39.6°F4.2°C 35.1°F1.7°C 36.7°F2.6°C
Winds 9.9 mph 15.9 kmh 1.6 mph 2.6 kmh 5.0 mph WSW8.0 kmh WSW
Wind Gusts 24.7 mph39.8 kmh 5.4 mph8.7 kmh 11.0 mph17.7 kmh
Humidity 94% 78% 85%
Pressure 30.07 in1018.3 mb 29.71 in1006.1 mb -
Precipitation 0.10 in2.5 mm - -
Hour Temp Dew Point Humidity Winds Wind Gusts Pressure Precip Precip Rate Daily Precip Total
12:00 AM 39.0°F3.9°C 35.5°F1.9°C 87% 9.9 mph W15.9 kmh W 23.3 mph37.5 kmh 29.71 in1006.1 mb 0.00 in0.0 mm 0.00 in0.0 mm 0.00 in0.0 mm
12:15 AM 39.2°F4.0°C 35.4°F1.9°C 86% 9.5 mph W15.3 kmh W 16.5 mph26.6 kmh 29.71 in1006.1 mb 0.00 in0.0 mm 0.00 in0.0 mm 0.00 in0.0 mm
12:31 AM 39.4°F4.1°C 35.2°F1.8°C 85% 9.7 mph W15.6 kmh W 20.8 mph33.5 kmh 29.74 in1007.1 mb 0.00 in0.0 mm 0.00 in0.0 mm 0.00 in0.0 mm
12:45 AM 39.4°F4.1°C 35.2°F1.8°C 85% 9.6 mph W15.4 kmh W 17.2 mph27.7 kmh 29.74 in1007.1 mb 0.00 in0.0 mm 0.00 in0.0 mm 0.00 in0.0 mm
01:00 AM 39.4°F4.1°C 35.2°F1.8°C 85% 8.2 mph W13.2 kmh W 24.7 mph39.8 kmh 29.74 in1007.1 mb 0.00 in0.0 mm 0.00 in0.0 mm 0.00 in0.0 mm
01:15 AM 39.2°F4.0°C 35.1°F1.7°C 85% 7.3 mph W11.7 kmh W 15.4 mph24.8 kmh 29.74 in1007.1 mb 0.00 in0.0 mm 0.00 in0.0 mm 0.00 in0.0 mm
01:30 AM 39.4°F4.1°C 35.2°F1.8°C 85% 8.7 mph W14.0 kmh W 20.4 mph32.8 kmh 29.77 in1008.1 mb 0.00 in0.0 mm 0.00 in0.0 mm 0.00 in0.0 mm
01:45 AM 39.4°F4.1°C 35.2°F1.8°C 85% 8.9 mph W14.3 kmh W 17.2 mph27.7 kmh 29.77 in1008.1 mb 0.00 in0.0 mm 0.00 in0.0 mm 0.00 in0.0 mm
02:00 AM 39.4°F4.1°C 35.2°F1.8°C 85% 8.5 mph W13.7 kmh W 20.0 mph32.2 kmh 29.77 in1008.1 mb 0.00 in0.0 mm 0.00 in0.0 mm 0.00 in0.0 mm
02:15 AM 39.4°F4.1°C 35.2°F1.8°C 85% 7.7 mph W12.4 kmh W 16.5 mph26.6 kmh 29.77 in1008.1 mb 0.00 in0.0 mm 0.00 in0.0 mm 0.00 in0.0 mm
02:30 AM 39.4°F4.1°C 35.2°F1.8°C 85% 6.8 mph W10.9 kmh W 12.5 mph20.1 kmh 29.77 in1008.1 mb 0.00 in0.0 mm 0.00 in0.0 mm 0.00 in0.0 mm
02:45 AM 39.2°F4.0°C 35.4°F1.9°C 86% 6.8 mph W10.9 kmh W 17.2 mph27.7 kmh 29.77 in1008.1 mb 0.00 in0.0 mm 0.00 in0.0 mm 0.00 in0.0 mm
03:00 AM 39.2°F4.0°C 35.4°F1.9°C 86% 6.6 mph W10.6 kmh W 13.6 mph21.9 kmh 29.77 in1008.1 mb 0.00 in0.0 mm 0.00 in0.0 mm 0.00 in0.0 mm
03:15 AM 39.4°F4.1°C 35.5°F1.9°C 86% 6.1 mph W9.8 kmh W 12.5 mph20.1 kmh 29.77 in1008.1 mb 0.00 in0.0 mm 0.00 in0.0 mm 0.00 in0.0 mm
03:30 AM 39.4°F4.1°C 35.5°F1.9°C 86% 5.3 mph W8.5 kmh W 15.4 mph24.8 kmh 29.77 in1008.1 mb 0.00 in0.0 mm 0.00 in0.0 mm 0.00 in0.0 mm
03:45 AM 39.4°F4.1°C 35.5°F1.9°C 86% 5.4 mph W8.7 kmh W 16.5 mph26.6 kmh 29.80 in1009.1 mb 0.00 in0.0 mm 0.00 in0.0 mm 0.00 in0.0 mm
04:00 AM 39.4°F4.1°C 35.5°F1.9°C 86% 6.1 mph W9.8 kmh W 16.5 mph26.6 kmh 29.80 in1009.1 mb 0.00 in0.0 mm 0.00 in0.0 mm 0.00 in0.0 mm
04:15 AM 39.6°F4.2°C 35.7°F2.1°C 86% 6.8 mph W10.9 kmh W 16.1 mph25.9 kmh 29.80 in1009.1 mb 0.00 in0.0 mm 0.00 in0.0 mm 0.00 in0.0 mm
04:30 AM 39.6°F4.2°C 35.7°F2.1°C 86% 6.1 mph W9.8 kmh W 12.9 mph20.8 kmh 29.80 in1009.1 mb 0.00 in0.0 mm 0.00 in0.0 mm 0.00 in0.0 mm
04:45 AM 39.4°F4.1°C 35.5°F1.9°C 86% 6.7 mph W10.8 kmh W 15.7 mph25.3 kmh 29.80 in1009.1 mb 0.00 in0.0 mm 0.00 in0.0 mm 0.00 in0.0 mm
05:00 AM 39.2°F4.0°C 35.4°F1.9°C 86% 5.5 mph W8.9 kmh W 11.8 mph19.0 kmh 29.83 in1010.2 mb 0.00 in0.0 mm 0.00 in0.0 mm 0.00 in0.0 mm
05:15 AM 39.2°F4.0°C 35.7°F2.1°C 87% 5.1 mph WNW8.2 kmh WNW 12.9 mph20.8 kmh 29.83 in1010.2 mb 0.00 in0.0 mm 0.00 in0.0 mm 0.00 in0.0 mm
05:30 AM 39.4°F4.1°C 35.8°F2.1°C 87% 5.9 mph W9.5 kmh W 15.7 mph25.3 kmh 29.83 in1010.2 mb 0.00 in0.0 mm 0.00 in0.0 mm 0.00 in0.0 mm
05:45 AM 39.4°F4.1°C 36.1°F2.3°C 88% 6.7 mph WNW10.8 kmh WNW 15.7 mph25.3 kmh 29.80 in1009.1 mb 0.00 in0.0 mm 0.00 in0.0 mm 0.00 in0.0 mm
06:00 AM 39.4°F4.1°C 36.1°F2.3°C 88% 5.7 mph WNW9.2 kmh WNW 16.1 mph25.9 kmh 29.83 in1010.2 mb 0.00 in0.0 mm 0.00 in0.0 mm 0.00 in0.0 mm
06:15 AM 39.6°F4.2°C 36.3°F2.4°C 88% 4.7 mph WNW7.6 kmh WNW 14.0 mph22.5 kmh 29.83 in1010.2 mb 0.00 in0.0 mm 0.00 in0.0 mm 0.00 in0.0 mm
06:30 AM 39.6°F4.2°C 36.3°F2.4°C 88% 4.9 mph WNW7.9 kmh WNW 12.5 mph20.1 kmh 29.83 in1010.2 mb 0.00 in0.0 mm 0.00 in0.0 mm 0.00 in0.0 mm
06:45 AM 39.6°F4.2°C 36.3°F2.4°C 88% 3.4 mph WNW5.5 kmh WNW 10.4 mph16.7 kmh 29.86 in1011.2 mb 0.00 in0.0 mm 0.00 in0.0 mm 0.00 in0.0 mm
07:00 AM 39.6°F4.2°C 36.3°F2.4°C 88% 4.9 mph NW7.9 kmh NW 10.0 mph16.1 kmh 29.89 in1012.2 mb 0.00 in0.0 mm 0.00 in0.0 mm 0.00 in0.0 mm
07:15 AM 39.6°F4.2°C 36.3°F2.4°C 88% 4.9 mph NW7.9 kmh NW 10.0 mph16.1 kmh 29.89 in1012.2 mb 0.00 in0.0 mm 0.00 in0.0 mm 0.00 in0.0 mm
07:30 AM 39.6°F4.2°C 36.3°F2.4°C 88% 4.1 mph NW6.6 kmh NW 8.9 mph14.3 kmh 29.89 in1012.2 mb 0.00 in0.0 mm 0.00 in0.0 mm 0.00 in0.0 mm
07:45 AM 39.6°F4.2°C 36.3°F2.4°C 88% 3.8 mph NW6.1 kmh NW 10.7 mph17.2 kmh 29.89 in1012.2 mb 0.00 in0.0 mm 0.00 in0.0 mm 0.00 in0.0 mm
08:00 AM 39.7°F4.3°C 36.5°F2.5°C 88% 4.2 mph W6.8 kmh W 10.4 mph16.7 kmh 29.89 in1012.2 mb 0.00 in0.0 mm 0.00 in0.0 mm 0.00 in0.0 mm
08:15 AM 39.9°F4.4°C 36.7°F2.6°C 88% 3.7 mph WNW6.0 kmh WNW 7.9 mph12.7 kmh 29.92 in1013.2 mb 0.00 in0.0 mm 0.00 in0.0 mm 0.00 in0.0 mm
08:32 AM 39.9°F4.4°C 36.7°F2.6°C 88% 4.0 mph NW6.4 kmh NW 9.3 mph15.0 kmh 29.92 in1013.2 mb 0.00 in0.0 mm 0.00 in0.0 mm 0.00 in0.0 mm
08:45 AM 40.1°F4.5°C 36.8°F2.7°C 88% 3.6 mph WNW5.8 kmh WNW 10.4 mph16.7 kmh 29.92 in1013.2 mb 0.00 in0.0 mm 0.00 in0.0 mm 0.00 in0.0 mm
09:00 AM 40.3°F4.6°C 37.0°F2.8°C 88% 4.2 mph NW6.8 kmh NW 10.4 mph16.7 kmh 29.92 in1013.2 mb 0.00 in0.0 mm 0.00 in0.0 mm 0.00 in0.0 mm
09:15 AM 40.6°F4.8°C 37.4°F3.0°C 88% 4.7 mph NW7.6 kmh NW 10.4 mph16.7 kmh 29.92 in1013.2 mb 0.00 in0.0 mm 0.00 in0.0 mm 0.00 in0.0 mm
09:30 AM 41.4°F5.2°C 38.1°F3.4°C 88% 3.5 mph NW5.6 kmh NW 9.7 mph15.6 kmh 29.95 in1014.2 mb 0.00 in0.0 mm 0.00 in0.0 mm 0.00 in0.0 mm
09:45 AM 42.1°F5.6°C 38.8°F3.8°C 88% 2.3 mph WNW3.7 kmh WNW 6.8 mph10.9 kmh 29.95 in1014.2 mb 0.00 in0.0 mm 0.00 in0.0 mm 0.00 in0.0 mm
10:00 AM 43.0°F6.1°C 38.8°F3.8°C 85% 6.0 mph NW9.7 kmh NW 13.6 mph21.9 kmh 29.92 in1013.2 mb 0.00 in0.0 mm 0.00 in0.0 mm 0.00 in0.0 mm
10:15 AM 42.8°F6.0°C 38.0°F3.3°C 83% 4.5 mph NW7.2 kmh NW 11.8 mph19.0 kmh 29.95 in1014.2 mb 0.00 in0.0 mm 0.00 in0.0 mm 0.00 in0.0 mm
10:30 AM 43.0°F6.1°C 37.9°F3.3°C 82% 4.8 mph NW7.7 kmh NW 11.8 mph19.0 kmh 29.95 in1014.2 mb 0.00 in0.0 mm 0.00 in0.0 mm 0.00 in0.0 mm
10:45 AM 43.2°F6.2°C 37.4°F3.0°C 80% 4.9 mph NW7.9 kmh NW 11.1 mph17.9 kmh 29.95 in1014.2 mb 0.00 in0.0 mm 0.00 in0.0 mm 0.00 in0.0 mm
11:00 AM 41.9°F5.5°C 35.9°F2.2°C 79% 3.4 mph NW5.5 kmh NW 8.6 mph13.8 kmh 29.95 in1014.2 mb 0.00 in0.0 mm 0.00 in0.0 mm 0.00 in0.0 mm
11:15 AM 42.4°F5.8°C 37.0°F2.8°C 81% 2.6 mph NW4.2 kmh NW 7.9 mph12.7 kmh 29.95 in1014.2 mb 0.00 in0.0 mm 0.00 in0.0 mm 0.00 in0.0 mm
11:30 AM 43.2°F6.2°C 37.1°F2.8°C 79% 4.8 mph NW7.7 kmh NW 9.3 mph15.0 kmh 29.98 in1015.2 mb 0.00 in0.0 mm 0.00 in0.0 mm 0.00 in0.0 mm
11:45 AM 43.7°F6.5°C 37.9°F3.3°C 80% 4.5 mph W7.2 kmh W 10.4 mph16.7 kmh 29.98 in1015.2 mb 0.00 in0.0 mm 0.00 in0.0 mm 0.00 in0.0 mm
12:00 PM 44.2°F6.8°C 38.5°F3.6°C 80% 3.6 mph W5.8 kmh W 7.9 mph12.7 kmh 29.98 in1015.2 mb 0.00 in0.0 mm 0.00 in0.0 mm 0.00 in0.0 mm
12:15 PM 45.0°F7.2°C 38.8°F3.8°C 79% 4.6 mph W7.4 kmh W 9.3 mph15.0 kmh 30.01 in1016.3 mb 0.00 in0.0 mm 0.00 in0.0 mm 0.00 in0.0 mm
12:30 PM 45.0°F7.2°C 38.5°F3.6°C 78% 3.6 mph W5.8 kmh W 7.5 mph12.1 kmh 30.01 in1016.3 mb 0.00 in0.0 mm 0.00 in0.0 mm 0.00 in0.0 mm
12:45 PM 43.9°F6.6°C 37.5°F3.1°C 78% 5.1 mph W8.2 kmh W 10.0 mph16.1 kmh 30.01 in1016.3 mb 0.00 in0.0 mm 0.00 in0.0 mm 0.00 in0.0 mm
01:00 PM 43.0°F6.1°C 36.6°F2.6°C 78% 4.7 mph W7.6 kmh W 8.6 mph13.8 kmh 30.01 in1016.3 mb 0.00 in0.0 mm 0.00 in0.0 mm 0.00 in0.0 mm
01:15 PM 42.4°F5.8°C 36.4°F2.4°C 79% 4.7 mph W7.6 kmh W 12.9 mph20.8 kmh 30.01 in1016.3 mb 0.00 in0.0 mm 0.00 in0.0 mm 0.00 in0.0 mm
01:30 PM 42.4°F5.8°C 36.7°F2.6°C 80% 5.8 mph W9.3 kmh W 10.0 mph16.1 kmh 30.01 in1016.3 mb 0.00 in0.0 mm 0.00 in0.0 mm 0.00 in0.0 mm
01:45 PM 42.6°F5.9°C 37.2°F2.9°C 81% 6.4 mph W10.3 kmh W 10.4 mph16.7 kmh 29.98 in1015.2 mb 0.00 in0.0 mm 0.00 in0.0 mm 0.00 in0.0 mm
02:00 PM 43.0°F6.1°C 37.5°F3.1°C 81% 4.7 mph W7.6 kmh W 12.5 mph20.1 kmh 30.01 in1016.3 mb 0.00 in0.0 mm 0.00 in0.0 mm 0.00 in0.0 mm
02:15 PM 43.2°F6.2°C 37.4°F3.0°C 80% 4.0 mph W6.4 kmh W 9.7 mph15.6 kmh 30.01 in1016.3 mb 0.00 in0.0 mm 0.00 in0.0 mm 0.00 in0.0 mm
02:30 PM 43.3°F6.3°C 37.6°F3.1°C 80% 2.9 mph W4.7 kmh W 8.9 mph14.3 kmh 30.01 in1016.3 mb 0.00 in0.0 mm 0.00 in0.0 mm 0.00 in0.0 mm
02:45 PM 43.2°F6.2°C 37.1°F2.8°C 79% 4.6 mph W7.4 kmh W 9.3 mph15.0 kmh 30.01 in1016.3 mb 0.00 in0.0 mm 0.00 in0.0 mm 0.00 in0.0 mm
03:00 PM 42.8°F6.0°C 37.1°F2.8°C 80% 3.2 mph W5.1 kmh W 7.9 mph12.7 kmh 30.01 in1016.3 mb 0.00 in0.0 mm 0.00 in0.0 mm 0.00 in0.0 mm
03:15 PM 42.4°F5.8°C 36.7°F2.6°C 80% 4.5 mph W7.2 kmh W 10.4 mph16.7 kmh 30.04 in1017.3 mb 0.00 in0.0 mm 0.00 in0.0 mm 0.00 in0.0 mm
03:30 PM 42.1°F5.6°C 36.4°F2.4°C 80% 3.6 mph W5.8 kmh W 11.5 mph18.5 kmh 30.04 in1017.3 mb 0.00 in0.0 mm 0.00 in0.0 mm 0.00 in0.0 mm
03:45 PM 41.9°F5.5°C 36.5°F2.5°C 81% 3.6 mph WSW5.8 kmh WSW 6.4 mph10.3 kmh 30.04 in1017.3 mb 0.00 in0.0 mm 0.00 in0.0 mm 0.00 in0.0 mm
04:00 PM 41.5°F5.3°C 36.1°F2.3°C 81% 2.2 mph W3.5 kmh W 7.9 mph12.7 kmh 30.04 in1017.3 mb 0.00 in0.0 mm 0.00 in0.0 mm 0.00 in0.0 mm
04:15 PM 40.6°F4.8°C 35.3°F1.8°C 81% 3.4 mph W5.5 kmh W 6.1 mph9.8 kmh 30.01 in1016.3 mb 0.00 in0.0 mm 0.00 in0.0 mm 0.00 in0.0 mm
04:31 PM 40.3°F4.6°C 35.2°F1.8°C 82% 4.9 mph SSW7.9 kmh SSW 8.9 mph14.3 kmh 30.04 in1017.3 mb 0.00 in0.0 mm 0.00 in0.0 mm 0.00 in0.0 mm
04:45 PM 40.1°F4.5°C 35.4°F1.9°C 83% 3.3 mph W5.3 kmh W 7.9 mph12.7 kmh 30.04 in1017.3 mb 0.00 in0.0 mm 0.00 in0.0 mm 0.00 in0.0 mm
04:57 PM 40.1°F4.5°C 35.4°F1.9°C 83% 4.4 mph W7.1 kmh W 5.4 mph8.7 kmh 30.04 in1017.3 mb 0.00 in0.0 mm 0.00 in0.0 mm 0.00 in0.0 mm
04:58 PM 40.1°F4.5°C 35.4°F1.9°C 83% 4.9 mph W7.9 kmh W 7.5 mph12.1 kmh 30.04 in1017.3 mb 0.00 in0.0 mm 0.00 in0.0 mm 0.00 in0.0 mm
04:59 PM 40.1°F4.5°C 35.7°F2.1°C 84% 4.8 mph WSW7.7 kmh WSW 7.5 mph12.1 kmh 30.04 in1017.3 mb 0.00 in0.0 mm 0.00 in0.0 mm 0.00 in0.0 mm
05:00 PM 40.1°F4.5°C 35.7°F2.1°C 84% 4.5 mph WSW7.2 kmh WSW 7.5 mph12.1 kmh 30.04 in1017.3 mb 0.00 in0.0 mm 0.00 in0.0 mm 0.00 in0.0 mm
05:01 PM 40.1°F4.5°C 35.7°F2.1°C 84% 4.3 mph WSW6.9 kmh WSW 7.5 mph12.1 kmh 30.04 in1017.3 mb 0.00 in0.0 mm 0.00 in0.0 mm 0.00 in0.0 mm
05:02 PM 40.1°F4.5°C 35.7°F2.1°C 84% 4.0 mph WSW6.4 kmh WSW 7.5 mph12.1 kmh 30.04 in1017.3 mb 0.00 in0.0 mm 0.00 in0.0 mm 0.00 in0.0 mm
05:15 PM 39.9°F4.4°C 35.5°F1.9°C 84% 2.6 mph SW4.2 kmh SW 6.8 mph10.9 kmh 30.04 in1017.3 mb 0.00 in0.0 mm 0.00 in0.0 mm 0.00 in0.0 mm
05:30 PM 40.1°F4.5°C 35.7°F2.1°C 84% 2.0 mph WSW3.2 kmh WSW 8.6 mph13.8 kmh 30.04 in1017.3 mb 0.00 in0.0 mm 0.00 in0.0 mm 0.00 in0.0 mm
05:45 PM 40.1°F4.5°C 36.0°F2.2°C 85% 1.6 mph SW2.6 kmh SW 6.8 mph10.9 kmh 30.04 in1017.3 mb 0.00 in0.0 mm 0.00 in0.0 mm 0.00 in0.0 mm
06:00 PM 40.1°F4.5°C 36.0°F2.2°C 85% 4.7 mph SW7.6 kmh SW 9.7 mph15.6 kmh 30.04 in1017.3 mb 0.00 in0.0 mm 0.00 in0.0 mm 0.00 in0.0 mm
06:15 PM 40.1°F4.5°C 36.2°F2.3°C 86% 4.4 mph WSW7.1 kmh WSW 7.9 mph12.7 kmh 30.07 in1018.3 mb 0.00 in0.0 mm 0.00 in0.0 mm 0.00 in0.0 mm
06:30 PM 40.3°F4.6°C 36.4°F2.4°C 86% 3.6 mph SW5.8 kmh SW 9.3 mph15.0 kmh 30.04 in1017.3 mb 0.00 in0.0 mm 0.00 in0.0 mm 0.00 in0.0 mm
06:45 PM 40.5°F4.7°C 36.9°F2.7°C 87% 1.6 mph WSW2.6 kmh WSW 7.5 mph12.1 kmh 30.07 in1018.3 mb 0.00 in0.0 mm 0.00 in0.0 mm 0.00 in0.0 mm
07:00 PM 40.3°F4.6°C 36.4°F2.4°C 86% 2.1 mph S3.4 kmh S 6.1 mph9.8 kmh 30.07 in1018.3 mb 0.00 in0.0 mm 0.00 in0.0 mm 0.00 in0.0 mm
07:15 PM 40.3°F4.6°C 36.7°F2.6°C 87% 3.9 mph SW6.3 kmh SW 9.7 mph15.6 kmh 30.07 in1018.3 mb 0.00 in0.0 mm 0.00 in0.0 mm 0.00 in0.0 mm
07:30 PM 40.3°F4.6°C 36.7°F2.6°C 87% 2.9 mph S4.7 kmh S 7.2 mph11.6 kmh 30.07 in1018.3 mb 0.00 in0.0 mm 0.00 in0.0 mm 0.00 in0.0 mm
07:45 PM 40.3°F4.6°C 37.0°F2.8°C 88% 4.0 mph S6.4 kmh S 7.9 mph12.7 kmh 30.07 in1018.3 mb 0.00 in0.0 mm 0.00 in0.0 mm 0.00 in0.0 mm
08:00 PM 40.1°F4.5°C 36.8°F2.7°C 88% 3.1 mph W5.0 kmh W 6.4 mph10.3 kmh 30.07 in1018.3 mb 0.00 in0.0 mm 0.00 in0.0 mm 0.00 in0.0 mm
08:15 PM 40.1°F4.5°C 37.1°F2.8°C 89% 4.1 mph SSW6.6 kmh SSW 8.9 mph14.3 kmh 30.07 in1018.3 mb 0.00 in0.0 mm 0.00 in0.0 mm 0.00 in0.0 mm
08:30 PM 40.3°F4.6°C 37.3°F2.9°C 89% 3.9 mph S6.3 kmh S 8.6 mph13.8 kmh 30.07 in1018.3 mb 0.00 in0.0 mm 0.00 in0.0 mm 0.00 in0.0 mm
08:45 PM 40.3°F4.6°C 37.6°F3.1°C 90% 2.9 mph SSW4.7 kmh SSW 7.9 mph12.7 kmh 30.04 in1017.3 mb 0.00 in0.0 mm 0.00 in0.0 mm 0.00 in0.0 mm
09:00 PM 40.6°F4.8°C 37.9°F3.3°C 90% 3.8 mph WSW6.1 kmh WSW 9.3 mph15.0 kmh 30.07 in1018.3 mb 0.00 in0.0 mm 0.00 in0.0 mm 0.00 in0.0 mm
09:15 PM 40.8°F4.9°C 38.1°F3.4°C 90% 3.0 mph SSW4.8 kmh SSW 6.8 mph10.9 kmh 30.04 in1017.3 mb 0.00 in0.0 mm 0.00 in0.0 mm 0.00 in0.0 mm
09:30 PM 40.8°F4.9°C 38.4°F3.6°C 91% 3.3 mph S5.3 kmh S 7.9 mph12.7 kmh 30.07 in1018.3 mb 0.00 in0.0 mm 0.00 in0.0 mm 0.00 in0.0 mm
09:45 PM 40.8°F4.9°C 38.4°F3.6°C 91% 2.4 mph S3.9 kmh S 8.6 mph13.8 kmh 30.04 in1017.3 mb 0.00 in0.0 mm 0.00 in0.0 mm 0.00 in0.0 mm
10:00 PM 40.8°F4.9°C 38.7°F3.7°C 92% 3.2 mph S5.1 kmh S 10.7 mph17.2 kmh 30.04 in1017.3 mb 0.05 in1.3 mm 0.07 in1.8 mm 0.05 in1.3 mm
10:15 PM 40.8°F4.9°C 39.0°F3.9°C 93% 4.0 mph S6.4 kmh S 10.4 mph16.7 kmh 30.07 in1018.3 mb 0.05 in1.3 mm 0.00 in0.0 mm 0.05 in1.3 mm
10:30 PM 41.0°F5.0°C 39.1°F3.9°C 93% 3.1 mph S5.0 kmh S 10.4 mph16.7 kmh 30.07 in1018.3 mb 0.05 in1.3 mm 0.00 in0.0 mm 0.05 in1.3 mm
10:45 PM 41.0°F5.0°C 39.4°F4.1°C 94% 4.7 mph S7.6 kmh S 11.8 mph19.0 kmh 30.07 in1018.3 mb 0.05 in1.3 mm 0.00 in0.0 mm 0.05 in1.3 mm
11:00 PM 41.0°F5.0°C 39.4°F4.1°C 94% 2.2 mph S3.5 kmh S 8.9 mph14.3 kmh 30.07 in1018.3 mb 0.00 in0.0 mm 0.00 in0.0 mm 0.05 in1.3 mm
11:15 PM 41.2°F5.1°C 39.6°F4.2°C 94% 4.7 mph S7.6 kmh S 14.0 mph22.5 kmh 30.07 in1018.3 mb 0.05 in1.3 mm 0.20 in5.1 mm 0.10 in2.5 mm
11:30 PM 41.2°F5.1°C 39.6°F4.2°C 94% 5.4 mph S8.7 kmh S 12.9 mph20.8 kmh 30.07 in1018.3 mb 0.05 in1.3 mm 0.00 in0.0 mm 0.10 in2.5 mm
11:45 PM 41.2°F5.1°C 39.6°F4.2°C 94% 5.8 mph SSW9.3 kmh SSW 11.1 mph17.9 kmh 30.04 in1017.3 mb 0.05 in1.3 mm 0.00 in0.0 mm 0.10 in2.5 mm